Time;durP1;ratioP1;P1;durP2;ratioP2;P2;SDS_P1;SDS_P2;PMS_P1;PMS_P2;Temp;Humidity;BMP_temperature;BMP_pressure;BME280_temperature;BME280_humidity;BME280_pressure;Samples;Min_cycle;Max_cycle;Signal;HPM_P1;HPM_P2
2022/03/01 00:01:25;;;;;;;102.50;86.45;;;0.60;74.70;;;;;;609212;234;26629;-64
2022/03/01 00:03:52;;;;;;;101.35;83.97;;;0.50;74.80;;;;;;610400;233;26615;-64
2022/03/01 00:06:19;;;;;;;103.28;84.50;;;0.50;75.50;;;;;;624007;230;26579;-64
2022/03/01 00:08:48;;;;;;;91.70;77.32;;;0.50;75.20;;;;;;625534;230;26640;-64
2022/03/01 00:11:15;;;;;;;90.93;77.32;;;0.50;74.50;;;;;;623912;228;26595;-64
2022/03/01 00:13:42;;;;;;;92.25;73.97;;;0.50;74.50;;;;;;626921;228;26913;-64
2022/03/01 00:16:10;;;;;;;85.18;70.87;;;0.40;74.60;;;;;;629681;226;26523;-64
2022/03/01 00:18:37;;;;;;;82.53;66.25;;;0.30;75.40;;;;;;628014;227;26584;-64
2022/03/01 00:21:05;;;;;;;78.65;65.03;;;0.40;75.80;;;;;;628482;226;26584;-64
2022/03/01 00:23:33;;;;;;;76.57;63.38;;;0.50;74.90;;;;;;629727;226;26634;-64
2022/03/01 00:26:01;;;;;;;78.43;63.67;;;0.40;74.40;;;;;;631772;226;26571;-64
2022/03/01 00:28:29;;;;;;;71.78;60.42;;;0.40;75.20;;;;;;626951;225;26597;-64
2022/03/01 00:30:57;;;;;;;67.43;57.62;;;0.40;74.30;;;;;;624574;230;26599;-64
2022/03/01 00:33:25;;;;;;;69.05;55.92;;;0.40;74.10;;;;;;627951;226;26611;-64
2022/03/01 00:35:52;;;;;;;65.87;54.17;;;0.40;74.10;;;;;;623972;229;26549;-64
2022/03/01 00:38:20;;;;;;;62.08;51.67;;;0.50;75.50;;;;;;623737;228;26875;-64
2022/03/01 00:40:48;;;;;;;57.47;48.78;;;0.50;74.80;;;;;;632362;226;26593;-64
2022/03/01 00:43:16;;;;;;;59.67;48.25;;;0.50;74.80;;;;;;627643;225;26564;-64
2022/03/01 00:45:43;;;;;;;57.38;48.03;;;0.50;74.30;;;;;;632549;225;26573;-64
2022/03/01 00:48:12;;;;;;;53.55;45.42;;;0.40;74.80;;;;;;629987;225;26600;-64
2022/03/01 00:50:39;;;;;;;53.28;43.30;;;0.40;74.80;;;;;;628579;226;26608;-64
2022/03/01 00:53:07;;;;;;;52.85;43.42;;;0.50;74.60;;;;;;623031;229;26614;-64
2022/03/01 00:55:34;;;;;;;46.72;39.03;;;0.40;74.30;;;;;;626126;229;26535;-64
2022/03/01 00:58:01;;;;;;;46.58;39.17;;;0.40;74.10;;;;;;626343;228;26557;-64
2022/03/01 01:00:28;;;;;;;44.35;36.83;;;0.40;74.50;;;;;;626396;228;26535;-64
2022/03/01 01:02:57;;;;;;;42.05;36.03;;;0.30;75.40;;;;;;626362;228;27232;-64
2022/03/01 01:05:24;;;;;;;41.95;34.13;;;0.30;74.60;;;;;;626387;229;26829;-64
2022/03/01 01:07:51;;;;;;;36.45;31.60;;;0.30;74.40;;;;;;622942;229;26650;-64
2022/03/01 01:10:18;;;;;;;39.15;32.72;;;0.40;74.60;;;;;;622815;229;26956;-63
2022/03/01 01:12:45;;;;;;;38.45;33.05;;;0.30;74.50;;;;;;622742;229;26603;-64
2022/03/01 01:15:13;;;;;;;36.45;31.08;;;0.30;74.40;;;;;;622779;229;26829;-63
2022/03/01 01:17:40;;;;;;;34.03;28.60;;;0.30;74.20;;;;;;622725;229;26661;-64
2022/03/01 01:20:09;;;;;;;36.03;29.87;;;0.20;74.70;;;;;;622821;231;26637;-64
2022/03/01 01:22:40;;;;;;;33.42;28.05;;;0.20;74.90;;;;;;622821;231;26621;-64
2022/03/01 01:25:14;;;;;;;32.95;27.62;;;0.20;75.30;;;;;;622842;229;26805;-64
2022/03/01 01:27:42;;;;;;;32.72;27.17;;;0.10;75.30;;;;;;622788;229;26623;-64
2022/03/01 01:30:10;;;;;;;30.88;25.77;;;0.10;74.70;;;;;;622868;229;26599;-64
2022/03/01 01:32:38;;;;;;;29.70;25.65;;;0.10;74.60;;;;;;622798;229;26626;-64
2022/03/01 01:35:05;;;;;;;29.00;24.77;;;0.10;75.20;;;;;;622743;229;26834;-64
2022/03/01 01:37:33;;;;;;;28.40;24.33;;;0.10;74.90;;;;;;622734;230;26805;-64
2022/03/01 01:40:00;;;;;;;27.33;23.40;;;0.10;75.70;;;;;;622800;229;26589;-64
2022/03/01 01:42:27;;;;;;;27.40;22.80;;;0.10;75.20;;;;;;624755;226;26849;-65
2022/03/01 01:44:54;;;;;;;23.92;21.30;;;0.10;75.30;;;;;;636965;224;26603;-65
2022/03/01 01:47:21;;;;;;;26.65;21.85;;;0.10;75.00;;;;;;636372;226;26781;-64
2022/03/01 01:49:49;;;;;;;25.10;21.02;;;0.00;75.40;;;;;;636134;226;26600;-64
2022/03/01 01:52:16;;;;;;;23.45;19.62;;;0.00;75.60;;;;;;632354;225;26852;-65
2022/03/01 01:54:43;;;;;;;21.70;19.12;;;0.00;76.00;;;;;;624693;229;26636;-65
2022/03/01 01:57:16;;;;;;;22.80;18.87;;;-0.10;75.60;;;;;;623407;229;26818;-64
2022/03/01 01:59:44;;;;;;;21.10;18.52;;;-0.10;76.30;;;;;;623393;229;26544;-64
2022/03/01 02:02:13;;;;;;;20.05;17.52;;;-0.10;76.00;;;;;;623169;229;26623;-63
2022/03/01 02:04:40;;;;;;;19.45;16.90;;;-0.10;75.90;;;;;;623002;229;26620;-63
2022/03/01 02:07:08;;;;;;;18.87;16.87;;;-0.20;75.80;;;;;;623137;226;26570;-64
2022/03/01 02:09:35;;;;;;;19.58;16.48;;;-0.20;75.70;;;;;;623331;226;26568;-64
2022/03/01 02:12:04;;;;;;;21.27;16.87;;;-0.20;76.30;;;;;;624456;229;26622;-64
2022/03/01 02:14:32;;;;;;;17.27;15.25;;;-0.20;76.50;;;;;;624158;224;26561;-64
2022/03/01 02:16:59;;;;;;;21.12;14.75;;;-0.20;76.00;;;;;;624089;229;26586;-64
2022/03/01 02:19:27;;;;;;;15.48;13.88;;;-0.20;76.90;;;;;;626761;228;26579;-64
2022/03/01 02:21:55;;;;;;;16.90;14.52;;;-0.10;76.40;;;;;;626522;229;26536;-64
2022/03/01 02:24:23;;;;;;;18.27;14.57;;;-0.20;76.60;;;;;;626544;229;26553;-64
2022/03/01 02:26:50;;;;;;;17.60;14.48;;;-0.20;77.10;;;;;;626512;229;26742;-65
2022/03/01 02:29:17;;;;;;;14.80;12.75;;;-0.30;76.80;;;;;;625684;229;26506;-64
2022/03/01 02:31:44;;;;;;;14.73;12.82;;;-0.30;77.30;;;;;;623240;229;26919;-64
2022/03/01 02:34:11;;;;;;;15.07;12.82;;;-0.30;76.70;;;;;;623290;229;26558;-65
2022/03/01 02:36:39;;;;;;;14.23;12.68;;;-0.30;77.10;;;;;;623317;230;26792;-64
2022/03/01 02:39:06;;;;;;;13.20;11.73;;;-0.30;77.50;;;;;;623286;231;26560;-64
2022/03/01 02:41:33;;;;;;;13.15;11.77;;;-0.30;77.10;;;;;;622742;229;26602;-64
2022/03/01 02:44:02;;;;;;;13.40;11.40;;;-0.30;77.10;;;;;;622414;229;26587;-65
2022/03/01 02:46:28;;;;;;;12.40;10.50;;;-0.40;77.70;;;;;;622679;229;26625;-65
2022/03/01 02:48:56;;;;;;;13.40;11.25;;;-0.40;77.30;;;;;;622776;229;26596;-65
2022/03/01 02:51:24;;;;;;;11.55;10.35;;;-0.40;77.10;;;;;;622700;230;26586;-65
2022/03/01 02:53:53;;;;;;;11.30;10.13;;;-0.40;77.20;;;;;;622817;229;26587;-64
2022/03/01 02:56:20;;;;;;;12.90;10.63;;;-0.40;77.20;;;;;;624469;228;26839;-64
2022/03/01 02:58:47;;;;;;;11.98;9.95;;;-0.40;77.10;;;;;;623947;229;26532;-64
2022/03/01 03:01:15;;;;;;;12.18;9.95;;;-0.30;77.40;;;;;;623647;228;26602;-64
2022/03/01 03:03:43;;;;;;;11.07;9.70;;;-0.40;77.30;;;;;;623531;229;26569;-64
2022/03/01 03:06:10;;;;;;;9.65;8.52;;;-0.40;77.70;;;;;;624225;229;26550;-64
2022/03/01 03:08:37;;;;;;;11.65;9.18;;;-0.40;77.60;;;;;;624826;228;26775;-64
2022/03/01 03:11:04;;;;;;;10.50;9.30;;;-0.40;77.70;;;;;;626628;229;26598;-64
2022/03/01 03:13:31;;;;;;;10.27;8.70;;;-0.40;77.50;;;;;;623784;226;26834;-64
2022/03/01 03:15:59;;;;;;;9.23;8.20;;;-0.40;77.60;;;;;;623894;226;26596;-64
2022/03/01 03:18:26;;;;;;;9.57;7.97;;;-0.50;77.70;;;;;;632670;226;26783;-64
2022/03/01 03:20:53;;;;;;;9.77;7.82;;;-0.60;77.90;;;;;;624582;225;26583;-64
2022/03/01 03:23:21;;;;;;;9.73;8.65;;;-0.60;78.20;;;;;;629276;226;26793;-64
2022/03/01 03:25:48;;;;;;;9.10;8.20;;;-0.50;77.60;;;;;;631893;225;27118;-64
2022/03/01 03:28:16;;;;;;;8.90;8.00;;;-0.50;78.20;;;;;;632545;226;26550;-64
2022/03/01 03:30:44;;;;;;;8.15;7.20;;;-0.50;77.60;;;;;;634036;226;26622;-64
2022/03/01 03:33:12;;;;;;;8.65;7.47;;;-0.50;78.30;;;;;;622754;229;26627;-64
2022/03/01 03:35:40;;;;;;;8.95;7.90;;;-0.50;77.80;;;;;;633117;225;26540;-65
2022/03/01 03:38:08;;;;;;;8.88;7.97;;;-0.50;78.30;;;;;;633928;226;26590;-65
2022/03/01 03:40:35;;;;;;;9.38;7.62;;;-0.50;78.30;;;;;;631339;226;26811;-65
2022/03/01 03:43:02;;;;;;;7.82;7.03;;;-0.50;78.00;;;;;;628564;226;26564;-65
2022/03/01 03:45:30;;;;;;;8.52;7.32;;;-0.50;77.90;;;;;;628746;225;26607;-65
2022/03/01 03:47:58;;;;;;;7.53;6.82;;;-0.50;77.40;;;;;;632613;226;26793;-65
2022/03/01 03:50:25;;;;;;;8.43;7.25;;;-0.50;76.80;;;;;;625671;225;26607;-65
2022/03/01 03:52:53;;;;;;;7.82;6.82;;;-0.50;77.40;;;;;;626016;229;26567;-65
2022/03/01 03:55:20;;;;;;;7.78;6.68;;;-0.60;77.30;;;;;;630767;226;26593;-65
2022/03/01 03:57:47;;;;;;;8.13;7.32;;;-0.60;77.80;;;;;;635060;222;26540;-64
2022/03/01 04:00:16;;;;;;;7.60;6.90;;;-0.60;77.60;;;;;;630150;226;26770;-64
2022/03/01 04:02:43;;;;;;;7.62;6.82;;;-0.60;77.50;;;;;;625073;226;26630;-64
2022/03/01 04:05:12;;;;;;;6.65;6.05;;;-0.60;77.60;;;;;;622878;226;26852;-64
2022/03/01 04:07:38;;;;;;;7.75;6.37;;;-0.60;77.60;;;;;;628643;222;26589;-64
2022/03/01 04:10:06;;;;;;;7.22;6.53;;;-0.60;77.40;;;;;;632235;226;26615;-64
2022/03/01 04:12:33;;;;;;;6.40;5.80;;;-0.50;77.70;;;;;;624050;229;26832;-65
2022/03/01 04:15:01;;;;;;;7.35;5.95;;;-0.50;77.40;;;;;;625881;225;26590;-64
2022/03/01 04:17:29;;;;;;;6.78;5.80;;;-0.50;76.80;;;;;;625155;225;26538;-64
2022/03/01 04:19:57;;;;;;;7.18;6.32;;;-0.40;76.80;;;;;;631149;225;26615;-65
2022/03/01 04:22:25;;;;;;;7.62;6.00;;;-0.50;76.90;;;;;;630209;225;26616;-64
2022/03/01 04:24:52;;;;;;;6.78;6.00;;;-0.50;76.80;;;;;;632425;226;26589;-64
2022/03/01 04:27:19;;;;;;;6.57;5.80;;;-0.50;77.10;;;;;;630559;225;26595;-64
2022/03/01 04:29:47;;;;;;;6.95;6.00;;;-0.50;76.70;;;;;;629402;225;26598;-64
2022/03/01 04:32:15;;;;;;;6.57;5.72;;;-0.50;77.20;;;;;;635417;226;26574;-64
2022/03/01 04:34:42;;;;;;;6.25;5.65;;;-0.60;77.00;;;;;;634519;226;26824;-64
2022/03/01 04:37:10;;;;;;;6.20;5.53;;;-0.50;76.90;;;;;;635122;226;26534;-64
2022/03/01 04:39:38;;;;;;;6.00;5.32;;;-0.60;77.10;;;;;;632917;226;26796;-64
2022/03/01 04:42:06;;;;;;;6.07;5.43;;;-0.60;77.20;;;;;;624563;225;26829;-65
2022/03/01 04:44:34;;;;;;;5.95;5.37;;;-0.60;76.80;;;;;;626250;225;26598;-64
2022/03/01 04:47:02;;;;;;;6.28;5.55;;;-0.60;77.10;;;;;;627006;226;26603;-64
2022/03/01 04:49:29;;;;;;;6.93;6.10;;;-0.60;77.00;;;;;;623316;225;26586;-65
2022/03/01 04:51:56;;;;;;;6.00;5.40;;;-0.60;76.70;;;;;;623407;226;26854;-64
2022/03/01 04:54:23;;;;;;;6.80;5.15;;;-0.60;76.90;;;;;;625637;226;26540;-64
2022/03/01 04:56:50;;;;;;;6.35;5.43;;;-0.50;76.50;;;;;;630451;225;26876;-64
2022/03/01 04:59:18;;;;;;;6.78;5.47;;;-0.60;76.60;;;;;;629848;224;26533;-65
2022/03/01 05:01:45;;;;;;;5.75;5.25;;;-0.60;76.20;;;;;;634936;225;26844;-65
2022/03/01 05:04:12;;;;;;;5.37;4.70;;;-0.60;77.00;;;;;;627444;226;26535;-65
2022/03/01 05:06:39;;;;;;;6.37;5.32;;;-0.60;76.50;;;;;;634697;226;26798;-64
2022/03/01 05:09:06;;;;;;;6.30;5.30;;;-0.60;76.40;;;;;;631204;225;26563;-64
2022/03/01 05:11:35;;;;;;;6.60;5.40;;;-0.60;77.10;;;;;;623221;229;26595;-64
2022/03/01 05:14:02;;;;;;;5.65;5.05;;;-0.70;76.20;;;;;;623246;230;26594;-65
2022/03/01 05:16:30;;;;;;;5.70;5.10;;;-0.70;76.50;;;;;;623251;229;26561;-64
2022/03/01 05:18:57;;;;;;;5.07;4.60;;;-0.70;76.50;;;;;;624592;228;26550;-64
2022/03/01 05:21:24;;;;;;;5.55;5.00;;;-0.60;76.80;;;;;;630445;226;26548;-65
2022/03/01 05:23:51;;;;;;;5.95;5.35;;;-0.60;76.10;;;;;;636122;226;26598;-65
2022/03/01 05:26:18;;;;;;;6.80;5.00;;;-0.60;76.00;;;;;;627527;225;26540;-66
2022/03/01 05:28:46;;;;;;;8.20;5.37;;;-0.60;76.10;;;;;;625179;226;26781;-66
2022/03/01 05:31:13;;;;;;;7.70;5.43;;;-0.70;75.80;;;;;;626357;226;26542;-65
2022/03/01 05:33:41;;;;;;;6.82;5.47;;;-0.70;75.90;;;;;;626717;228;26784;-64
2022/03/01 05:36:08;;;;;;;5.37;4.87;;;-0.80;75.80;;;;;;626777;225;26824;-65
2022/03/01 05:38:36;;;;;;;5.30;4.80;;;-0.80;75.80;;;;;;624204;229;26598;-65
2022/03/01 05:41:04;;;;;;;5.03;4.53;;;-0.80;76.10;;;;;;623097;229;27165;-65
2022/03/01 05:43:30;;;;;;;5.82;4.90;;;-0.90;76.30;;;;;;623039;230;26571;-64
2022/03/01 05:45:58;;;;;;;14.65;6.68;;;-0.80;76.90;;;;;;623113;229;26588;-66
2022/03/01 05:48:26;;;;;;;75.03;18.77;;;-0.80;77.30;;;;;;626985;226;26590;-65
2022/03/01 05:50:54;;;;;;;85.20;19.45;;;-0.80;77.70;;;;;;629647;225;26628;-65
2022/03/01 05:53:22;;;;;;;69.87;16.35;;;-0.70;76.70;;;;;;634013;225;26548;-66
2022/03/01 05:55:50;;;;;;;57.47;17.40;;;-0.70;76.50;;;;;;630213;226;26540;-67
2022/03/01 05:58:17;;;;;;;80.47;16.92;;;-0.80;76.40;;;;;;632385;226;26575;-64
2022/03/01 06:00:44;;;;;;;67.68;15.85;;;-0.80;76.60;;;;;;636756;225;26572;-64
2022/03/01 06:03:12;;;;;;;55.03;14.02;;;-0.80;76.70;;;;;;630694;225;26861;-65
2022/03/01 06:05:39;;;;;;;46.65;11.65;;;-0.70;76.70;;;;;;624321;226;26576;-64
2022/03/01 06:08:06;;;;;;;39.60;12.43;;;-0.70;76.90;;;;;;626059;225;26635;-64
2022/03/01 06:10:35;;;;;;;23.70;8.50;;;-0.70;76.40;;;;;;624280;226;26939;-64
2022/03/01 06:13:01;;;;;;;24.08;7.78;;;-0.70;76.40;;;;;;626139;226;26645;-64
2022/03/01 06:15:29;;;;;;;10.48;5.75;;;-0.60;76.60;;;;;;630413;226;26833;-64
2022/03/01 06:17:56;;;;;;;8.20;5.55;;;-0.60;76.50;;;;;;629276;226;26583;-66
2022/03/01 06:20:24;;;;;;;10.70;5.40;;;-0.60;76.50;;;;;;626032;226;26944;-64
2022/03/01 06:22:51;;;;;;;6.45;4.97;;;-0.50;76.20;;;;;;630668;225;26575;-64
2022/03/01 06:25:18;;;;;;;10.05;4.97;;;-0.60;76.30;;;;;;634876;226;26545;-63
2022/03/01 06:27:45;;;;;;;7.82;4.72;;;-0.60;76.20;;;;;;635133;226;26529;-65
2022/03/01 06:30:13;;;;;;;8.57;4.87;;;-0.60;76.10;;;;;;636355;224;26574;-63
2022/03/01 06:32:41;;;;;;;7.15;5.07;;;-0.50;76.90;;;;;;636497;226;26559;-64
2022/03/01 06:35:09;;;;;;;8.77;5.10;;;-0.50;76.10;;;;;;636196;226;26620;-63
2022/03/01 06:37:36;;;;;;;9.27;4.80;;;-0.50;76.10;;;;;;636091;226;27082;-64
2022/03/01 06:40:06;;;;;;;9.05;4.60;;;-0.50;76.40;;;;;;635817;226;26592;-64
2022/03/01 06:42:31;;;;;;;5.57;4.62;;;-0.50;76.40;;;;;;636069;226;26596;-64
2022/03/01 06:44:58;;;;;;;7.18;4.35;;;-0.40;76.00;;;;;;636263;226;27000;-64
2022/03/01 06:47:25;;;;;;;8.95;4.93;;;-0.40;75.60;;;;;;635969;226;26547;-64
2022/03/01 06:49:53;;;;;;;8.82;4.75;;;-0.20;75.70;;;;;;635494;226;26793;-64
2022/03/01 06:52:20;;;;;;;9.65;4.80;;;-0.10;76.50;;;;;;635368;226;26577;-64
2022/03/01 06:54:47;;;;;;;7.53;4.60;;;0.20;74.80;;;;;;635388;225;26786;-63
2022/03/01 06:57:15;;;;;;;7.25;4.72;;;0.70;73.10;;;;;;635481;226;26533;-64
2022/03/01 06:59:43;;;;;;;6.03;4.32;;;0.50;72.50;;;;;;635419;226;26546;-64
2022/03/01 07:02:10;;;;;;;7.03;4.43;;;0.50;72.60;;;;;;635444;222;26731;-63
2022/03/01 07:04:38;;;;;;;5.60;4.47;;;0.40;73.90;;;;;;635441;226;26786;-64
2022/03/01 07:07:05;;;;;;;5.78;4.32;;;0.30;72.90;;;;;;635166;226;26561;-63
2022/03/01 07:09:32;;;;;;;5.60;4.53;;;0.30;73.40;;;;;;635158;226;26777;-64
2022/03/01 07:12:00;;;;;;;7.10;4.40;;;0.30;73.30;;;;;;635132;226;26593;-64
2022/03/01 07:14:28;;;;;;;5.07;4.07;;;0.40;73.50;;;;;;635157;226;26560;-64
2022/03/01 07:16:55;;;;;;;5.22;4.15;;;0.30;73.40;;;;;;635180;222;26833;-64
2022/03/01 07:19:22;;;;;;;5.15;4.20;;;0.40;73.10;;;;;;635132;226;26524;-64
2022/03/01 07:21:50;;;;;;;5.43;4.53;;;0.40;72.60;;;;;;635150;226;26832;-64
2022/03/01 07:24:17;;;;;;;8.38;4.45;;;0.50;72.20;;;;;;635161;226;26532;-64
2022/03/01 07:26:44;;;;;;;6.15;4.03;;;0.40;72.20;;;;;;635131;226;26552;-64
2022/03/01 07:29:12;;;;;;;5.00;3.87;;;0.50;72.20;;;;;;635113;222;26553;-63
2022/03/01 07:31:40;;;;;;;4.53;4.00;;;0.60;72.40;;;;;;635066;226;26591;-63
2022/03/01 07:34:08;;;;;;;4.85;3.70;;;0.60;71.90;;;;;;635164;226;26871;-63
2022/03/01 07:36:35;;;;;;;6.15;4.20;;;0.60;71.50;;;;;;635138;226;26814;-63
2022/03/01 07:39:02;;;;;;;10.98;4.20;;;0.70;71.60;;;;;;635144;226;26608;-65
2022/03/01 07:41:30;;;;;;;7.95;3.40;;;0.80;70.90;;;;;;636054;224;26813;-65
2022/03/01 07:43:57;;;;;;;6.85;4.10;;;0.80;71.00;;;;;;636600;225;26576;-65
2022/03/01 07:46:24;;;;;;;7.85;4.20;;;0.80;70.90;;;;;;636239;226;26878;-65
2022/03/01 07:48:52;;;;;;;6.47;4.10;;;1.00;70.10;;;;;;636069;226;26593;-65
2022/03/01 07:51:19;;;;;;;6.40;4.45;;;1.00;70.10;;;;;;635783;226;26589;-66
2022/03/01 07:53:46;;;;;;;4.40;3.97;;;1.10;70.00;;;;;;635821;226;26591;-66
2022/03/01 07:56:14;;;;;;;9.20;4.68;;;1.20;69.30;;;;;;635794;226;26803;-65
2022/03/01 07:58:43;;;;;;;7.28;4.57;;;1.20;69.30;;;;;;635700;222;26929;-65
2022/03/01 08:01:09;;;;;;;9.15;4.43;;;1.30;68.80;;;;;;635314;226;26532;-65
2022/03/01 08:03:37;;;;;;;5.45;4.28;;;1.40;68.70;;;;;;635513;226;26569;-65
2022/03/01 08:06:05;;;;;;;7.70;4.20;;;1.50;68.60;;;;;;635455;226;26545;-65
2022/03/01 08:08:33;;;;;;;4.53;3.85;;;1.50;68.20;;;;;;635477;226;26848;-65
2022/03/01 08:11:01;;;;;;;6.40;4.37;;;1.70;67.70;;;;;;635449;226;27408;-66
2022/03/01 08:13:29;;;;;;;5.00;4.47;;;1.70;67.60;;;;;;635421;226;27276;-65
2022/03/01 08:15:56;;;;;;;5.45;4.05;;;1.80;67.20;;;;;;635420;226;26537;-65
2022/03/01 08:18:24;;;;;;;5.45;4.20;;;1.90;66.50;;;;;;635172;226;26524;-65
2022/03/01 08:20:52;;;;;;;5.55;4.55;;;1.90;66.50;;;;;;635088;226;26544;-65
2022/03/01 08:23:19;;;;;;;5.43;4.22;;;2.20;66.20;;;;;;635126;226;26627;-64
2022/03/01 08:25:46;;;;;;;5.03;3.70;;;2.20;65.20;;;;;;635172;226;26798;-65
2022/03/01 08:28:13;;;;;;;4.90;4.37;;;2.20;64.70;;;;;;635154;226;26540;-65
2022/03/01 08:30:40;;;;;;;8.43;4.68;;;2.20;65.40;;;;;;635113;226;26518;-69
2022/03/01 08:33:08;;;;;;;5.65;4.18;;;2.30;63.80;;;;;;635071;226;26563;-68
2022/03/01 08:35:36;;;;;;;70.60;15.00;;;2.30;64.00;;;;;;635182;226;26540;-69
2022/03/01 08:38:03;;;;;;;85.20;19.62;;;2.30;64.00;;;;;;635181;226;26533;-68
2022/03/01 08:40:32;;;;;;;255.52;32.75;;;2.30;64.00;;;;;;635163;226;26532;-68
2022/03/01 08:42:59;;;;;;;1007.20;93.80;;;2.40;64.00;;;;;;635060;226;26571;-67
2022/03/01 08:45:27;;;;;;;118.28;25.58;;;2.50;64.70;;;;;;635162;226;26547;-65
2022/03/01 08:47:55;;;;;;;110.15;23.20;;;2.50;64.50;;;;;;633110;225;27199;-65
2022/03/01 08:50:22;;;;;;;84.72;20.25;;;2.60;64.60;;;;;;625516;225;26580;-65
2022/03/01 08:52:49;;;;;;;85.07;19.30;;;2.70;63.30;;;;;;629867;224;26842;-65
2022/03/01 08:55:16;;;;;;;75.20;18.33;;;2.70;63.80;;;;;;629539;226;26596;-65
2022/03/01 08:57:43;;;;;;;54.85;18.17;;;2.70;62.60;;;;;;628708;226;26804;-65
2022/03/01 09:00:11;;;;;;;49.60;16.60;;;2.80;62.40;;;;;;625731;229;26561;-65
2022/03/01 09:02:38;;;;;;;37.83;13.70;;;2.80;62.70;;;;;;635338;226;26604;-64
2022/03/01 09:05:06;;;;;;;16.30;7.47;;;2.90;61.90;;;;;;635703;226;26924;-64
2022/03/01 09:07:33;;;;;;;13.20;6.60;;;3.00;61.50;;;;;;628646;226;26587;-64
2022/03/01 09:10:00;;;;;;;9.07;6.00;;;3.10;61.50;;;;;;626529;226;26534;-64
2022/03/01 09:12:27;;;;;;;10.02;5.97;;;3.10;61.90;;;;;;627123;226;26556;-64
2022/03/01 09:14:55;;;;;;;10.48;6.15;;;3.20;61.90;;;;;;631800;226;27187;-64
2022/03/01 09:17:22;;;;;;;9.52;5.45;;;3.20;61.20;;;;;;624755;229;26809;-64
2022/03/01 09:19:50;;;;;;;8.70;5.37;;;3.20;61.40;;;;;;632525;226;26581;-64
2022/03/01 09:22:17;;;;;;;8.02;5.07;;;3.30;61.40;;;;;;635495;225;26830;-65
2022/03/01 09:24:45;;;;;;;7.18;5.40;;;3.50;60.40;;;;;;635335;225;26613;-64
2022/03/01 09:27:15;;;;;;;8.18;5.62;;;3.50;60.80;;;;;;624952;229;26555;-64
2022/03/01 09:29:44;;;;;;;8.77;5.22;;;3.50;60.70;;;;;;630519;226;26619;-64
2022/03/01 09:32:10;;;;;;;7.35;4.90;;;3.50;60.70;;;;;;624943;226;26576;-63
2022/03/01 09:34:37;;;;;;;7.60;4.87;;;3.60;60.10;;;;;;624844;226;26580;-64
2022/03/01 09:37:04;;;;;;;6.82;4.78;;;3.60;60.70;;;;;;631863;226;26836;-64
2022/03/01 09:39:31;;;;;;;6.35;4.75;;;3.70;59.80;;;;;;631034;226;26552;-64
2022/03/01 09:41:58;;;;;;;6.47;5.22;;;3.70;59.60;;;;;;625943;221;26805;-64
2022/03/01 09:44:26;;;;;;;5.75;4.72;;;3.90;59.90;;;;;;623996;226;26592;-64
2022/03/01 09:46:54;;;;;;;6.28;4.90;;;3.80;59.90;;;;;;631574;226;26627;-64
2022/03/01 09:49:22;;;;;;;8.27;5.18;;;3.90;60.10;;;;;;628755;226;26592;-65
2022/03/01 09:51:51;;;;;;;6.05;5.00;;;3.90;60.00;;;;;;627623;226;26604;-64
2022/03/01 09:54:19;;;;;;;5.78;4.45;;;4.00;59.70;;;;;;625623;229;26535;-64
2022/03/01 09:56:46;;;;;;;7.85;4.97;;;4.00;59.50;;;;;;628205;226;26535;-64
2022/03/01 09:59:14;;;;;;;7.35;4.68;;;4.10;59.80;;;;;;630242;226;26590;-63
2022/03/01 10:01:48;;;;;;;5.28;4.70;;;4.10;59.80;;;;;;625176;229;26818;-64
2022/03/01 10:04:16;;;;;;;5.78;4.97;;;4.20;58.70;;;;;;624653;226;26561;-64
2022/03/01 10:06:44;;;;;;;6.53;4.37;;;4.20;58.70;;;;;;637769;225;26562;-64
2022/03/01 10:09:15;;;;;;;6.50;4.43;;;4.30;58.40;;;;;;633225;225;26563;-64
2022/03/01 10:11:42;;;;;;;7.37;5.12;;;4.30;58.40;;;;;;623647;229;26593;-64
2022/03/01 10:14:09;;;;;;;5.22;4.62;;;4.40;58.10;;;;;;634014;226;26809;-64
2022/03/01 10:16:41;;;;;;;5.10;4.47;;;4.40;57.70;;;;;;632097;226;26592;-64
2022/03/01 10:19:11;;;;;;;7.28;4.68;;;4.50;57.50;;;;;;623180;229;26551;-64
2022/03/01 10:21:37;;;;;;;5.90;5.03;;;4.50;57.50;;;;;;624874;226;26760;-64
2022/03/01 10:24:05;;;;;;;6.10;5.25;;;4.60;57.40;;;;;;623823;228;26579;-64
2022/03/01 10:26:32;;;;;;;5.35;4.35;;;4.70;57.60;;;;;;624078;229;26623;-64
2022/03/01 10:29:00;;;;;;;5.20;4.70;;;4.70;57.30;;;;;;626062;227;26608;-68
2022/03/01 10:31:28;;;;;;;7.30;5.05;;;4.80;58.30;;;;;;631157;227;26590;-66
2022/03/01 10:34:00;;;;;;;8.38;5.10;;;4.80;58.20;;;;;;632039;227;26747;-66
2022/03/01 10:36:25;;;;;;;7.85;4.90;;;4.90;57.70;;;;;;632189;227;26511;-66
2022/03/01 10:38:54;;;;;;;7.35;4.90;;;4.90;57.80;;;;;;632099;227;26520;-66
2022/03/01 10:41:23;;;;;;;6.40;4.97;;;5.00;58.00;;;;;;631873;227;26776;-66
2022/03/01 10:43:51;;;;;;;7.32;5.20;;;5.10;56.70;;;;;;631031;227;26867;-65
2022/03/01 10:46:18;;;;;;;7.87;5.00;;;5.10;55.40;;;;;;631324;227;26834;-66
2022/03/01 10:48:45;;;;;;;8.00;4.75;;;5.20;55.30;;;;;;631589;227;26581;-66
2022/03/01 10:51:13;;;;;;;6.57;5.28;;;5.30;56.40;;;;;;631666;227;26570;-65
2022/03/01 10:53:42;;;;;;;6.07;4.87;;;5.40;56.20;;;;;;631669;227;26631;-65
2022/03/01 10:56:09;;;;;;;6.97;5.37;;;5.40;56.30;;;;;;631661;227;26557;-65
2022/03/01 10:58:38;;;;;;;6.72;5.60;;;5.50;56.70;;;;;;631686;227;26584;-65
2022/03/01 11:01:05;;;;;;;6.37;5.78;;;5.40;56.70;;;;;;631527;227;26971;-65
2022/03/01 11:03:32;;;;;;;8.18;6.03;;;5.40;56.40;;;;;;631658;227;26636;-65
2022/03/01 11:06:00;;;;;;;6.87;5.53;;;5.50;55.90;;;;;;631621;228;26831;-65
2022/03/01 11:08:31;;;;;;;6.45;5.75;;;5.50;55.60;;;;;;631455;227;26615;-65
2022/03/01 11:10:58;;;;;;;10.20;6.40;;;5.50;55.90;;;;;;623920;227;26621;-65
2022/03/01 11:13:25;;;;;;;6.82;5.90;;;5.60;56.00;;;;;;629749;227;26961;-64
2022/03/01 11:15:58;;;;;;;6.80;6.20;;;5.60;55.60;;;;;;624268;226;26565;-64
2022/03/01 11:18:35;;;;;;;8.63;6.10;;;5.70;55.70;;;;;;627963;225;26598;-64
2022/03/01 11:21:03;;;;;;;8.10;5.78;;;5.70;55.10;;;;;;634105;226;26642;-65
2022/03/01 11:23:30;;;;;;;8.05;5.97;;;5.80;55.20;;;;;;624244;226;26647;-65
2022/03/01 11:26:13;;;;;;;9.13;6.07;;;5.90;54.60;;;;;;625325;229;26556;-65
2022/03/01 11:28:41;;;;;;;6.32;5.68;;;5.80;54.60;;;;;;625186;229;26600;-65
2022/03/01 11:31:20;;;;;;;6.15;5.55;;;6.00;54.40;;;;;;632568;226;26618;-65
2022/03/01 11:33:55;;;;;;;7.00;4.97;;;5.90;53.70;;;;;;623240;229;27195;-65
2022/03/01 11:36:22;;;;;;;5.57;5.07;;;6.10;53.80;;;;;;633050;224;26586;-65
2022/03/01 11:38:49;;;;;;;6.47;5.40;;;6.20;53.00;;;;;;635926;225;26837;-65
2022/03/01 11:41:20;;;;;;;7.22;5.25;;;6.10;52.70;;;;;;626525;226;26526;-65
2022/03/01 11:43:43;;;;;;;11.82;6.18;;;6.10;52.70;;;;;;632223;226;26528;-66
2022/03/01 11:46:14;;;;;;;8.05;5.65;;;6.30;52.50;;;;;;635073;226;26591;-66
2022/03/01 11:48:46;;;;;;;8.68;5.75;;;6.30;52.50;;;;;;635707;226;26979;-66
2022/03/01 11:51:12;;;;;;;7.85;5.87;;;6.40;51.90;;;;;;635297;226;26562;-67
2022/03/01 11:53:39;;;;;;;7.07;5.37;;;6.40;52.10;;;;;;634764;222;26540;-66
2022/03/01 11:56:07;;;;;;;8.52;5.60;;;6.40;51.50;;;;;;634635;226;26799;-66
2022/03/01 11:58:34;;;;;;;8.25;5.80;;;6.40;51.10;;;;;;634744;226;26535;-66
2022/03/01 12:01:04;;;;;;;7.32;5.28;;;6.50;50.40;;;;;;634990;226;26576;-66
2022/03/01 12:03:32;;;;;;;5.15;4.75;;;6.70;50.20;;;;;;635096;226;26564;-66
2022/03/01 12:06:01;;;;;;;5.75;5.00;;;6.70;50.20;;;;;;635158;226;26529;-66
2022/03/01 12:08:27;;;;;;;8.15;5.37;;;6.70;50.20;;;;;;635032;226;26773;-66
2022/03/01 12:10:55;;;;;;;7.60;5.50;;;6.70;49.80;;;;;;635207;226;26537;-65
2022/03/01 12:13:22;;;;;;;8.75;5.65;;;6.70;50.20;;;;;;634787;226;26791;-65
2022/03/01 12:15:55;;;;;;;6.43;5.35;;;6.90;49.10;;;;;;634073;226;26536;-65
2022/03/01 12:18:22;;;;;;;6.93;5.87;;;6.90;49.00;;;;;;635118;226;26782;-65
2022/03/01 12:20:50;;;;;;;7.05;5.57;;;7.10;49.00;;;;;;634748;226;26595;-66
2022/03/01 12:23:25;;;;;;;6.75;5.30;;;7.10;48.20;;;;;;635123;226;26691;-66
2022/03/01 12:25:52;;;;;;;5.85;5.28;;;7.10;48.20;;;;;;635009;226;26536;-66
2022/03/01 12:28:19;;;;;;;5.57;5.00;;;7.00;48.50;;;;;;636392;224;26780;-66
2022/03/01 12:30:47;;;;;;;5.57;4.95;;;7.10;48.50;;;;;;636489;226;26552;-66
2022/03/01 12:33:14;;;;;;;6.32;5.40;;;7.10;48.50;;;;;;636104;226;26605;-65
2022/03/01 12:35:41;;;;;;;8.60;5.10;;;7.20;48.50;;;;;;635899;226;27290;-66
2022/03/01 12:38:10;;;;;;;5.50;4.93;;;7.20;47.90;;;;;;635657;226;26592;-66
2022/03/01 12:40:37;;;;;;;5.45;4.65;;;7.20;48.00;;;;;;635742;226;26612;-66
2022/03/01 12:43:05;;;;;;;5.45;4.95;;;7.20;47.60;;;;;;633260;226;26626;-66
2022/03/01 12:45:34;;;;;;;4.90;4.50;;;7.30;47.20;;;;;;623196;229;26830;-66
2022/03/01 12:48:03;;;;;;;5.72;5.15;;;7.50;47.30;;;;;;623565;229;26550;-66